createdAt,value
2017-11-24T06:38:56.726Z,12.50
2017-11-24T06:41:25.615Z,12.60
2017-11-24T06:43:53.782Z,12.50
2017-11-24T06:46:22.677Z,12.50
2017-11-24T06:48:51.711Z,12.60
2017-11-24T06:51:19.859Z,12.50
2017-11-24T06:53:48.761Z,12.50
2017-11-24T06:56:16.893Z,12.40
2017-11-24T06:58:45.808Z,12.40
2017-11-24T07:01:13.966Z,12.40
2017-11-24T07:03:42.864Z,12.30
2017-11-24T07:06:10.999Z,12.30
2017-11-24T07:08:39.160Z,12.40
2017-11-24T07:11:07.289Z,12.40
2017-11-24T07:13:35.462Z,12.40
2017-11-24T07:16:03.602Z,12.40
2017-11-24T07:18:31.775Z,12.30
2017-11-24T07:20:59.909Z,12.20
2017-11-24T07:23:28.035Z,12.20
2017-11-24T07:25:56.941Z,12.30
2017-11-24T07:28:25.853Z,12.30
2017-11-24T07:30:54.009Z,12.30
2017-11-24T07:33:22.143Z,12.30
2017-11-24T07:35:50.310Z,12.30
2017-11-24T07:38:18.437Z,12.30
2017-11-24T07:40:46.630Z,12.30
2017-11-24T07:43:14.756Z,12.40
2017-11-24T07:45:43.702Z,12.40
2017-11-24T07:48:11.820Z,12.30
2017-11-24T07:50:40.740Z,12.40
2017-11-24T07:53:08.911Z,12.40
2017-11-24T07:55:37.036Z,12.40
2017-11-24T07:58:05.325Z,12.50
2017-11-24T08:00:33.457Z,12.60
2017-11-24T08:03:01.618Z,12.60
2017-11-24T08:05:29.769Z,12.60
2017-11-24T08:07:57.905Z,12.70
2017-11-24T08:10:26.069Z,12.70
2017-11-24T08:12:54.201Z,12.70
2017-11-24T08:15:22.393Z,12.70
2017-11-24T08:17:50.544Z,12.80
2017-11-24T08:20:18.711Z,12.90
2017-11-24T08:22:46.844Z,12.90
2017-11-24T08:25:14.974Z,13.00
2017-11-24T08:27:43.150Z,13.00
2017-11-24T08:30:11.285Z,13.10
2017-11-24T08:32:39.582Z,13.10
2017-11-24T08:35:07.718Z,13.20
2017-11-24T08:37:35.849Z,13.20
2017-11-24T08:40:04.003Z,13.20
2017-11-24T08:42:32.148Z,13.30
2017-11-24T08:45:00.305Z,13.30
2017-11-24T08:47:28.446Z,13.30
2017-11-24T08:49:56.713Z,13.40
2017-11-24T08:52:24.854Z,13.50
2017-11-24T08:54:53.015Z,13.50
2017-11-24T08:57:21.190Z,13.60
2017-11-24T08:59:49.310Z,13.60
2017-11-24T09:02:17.471Z,13.70
2017-11-24T09:04:45.610Z,13.70
2017-11-24T09:07:13.878Z,13.80
2017-11-24T09:09:42.027Z,13.80
2017-11-24T09:12:10.194Z,13.90
2017-11-24T09:14:38.382Z,13.90
2017-11-24T09:17:06.534Z,14.00
2017-11-24T09:19:34.698Z,14.00
2017-11-24T09:22:03.605Z,14.10
2017-11-24T09:24:31.893Z,14.10
2017-11-24T09:27:00.022Z,14.10
2017-11-24T09:29:28.171Z,14.20
2017-11-24T09:31:56.322Z,14.20
2017-11-24T09:34:24.455Z,14.30
2017-11-24T09:36:52.622Z,14.30
2017-11-24T09:39:20.749Z,14.40
2017-11-24T09:41:49.041Z,14.50
2017-11-24T09:44:17.970Z,14.60
2017-11-24T09:46:46.118Z,14.60
2017-11-24T09:49:15.033Z,14.70
2017-11-24T09:51:43.153Z,14.70
2017-11-24T09:54:11.329Z,14.80
2017-11-24T09:56:39.465Z,14.80
2017-11-24T09:59:07.601Z,14.90
2017-11-24T10:01:35.762Z,14.90
2017-11-24T10:04:04.709Z,14.90
2017-11-24T10:06:32.845Z,14.90
2017-11-24T10:09:00.976Z,14.90
2017-11-24T10:11:29.158Z,14.90
2017-11-24T10:13:57.324Z,14.90
2017-11-24T10:16:25.590Z,15.00
2017-11-24T10:18:53.775Z,15.00
2017-11-24T10:21:21.959Z,15.10
2017-11-24T10:23:50.085Z,15.20
2017-11-24T10:26:18.267Z,15.40
2017-11-24T10:28:46.410Z,15.50
2017-11-24T10:31:14.561Z,15.60
2017-11-24T10:33:42.692Z,15.60
2017-11-24T10:36:10.878Z,15.80
2017-11-24T10:38:39.017Z,15.90
2017-11-24T10:41:07.151Z,16.00
2017-11-24T10:43:35.290Z,16.10
2017-11-24T10:46:03.422Z,16.30
2017-11-24T10:48:31.582Z,16.40
2017-11-24T10:51:00.473Z,16.30
2017-11-24T10:53:29.521Z,16.30
2017-11-24T10:55:57.664Z,16.30
2017-11-24T10:58:25.830Z,16.30
2017-11-24T11:00:53.976Z,16.40
2017-11-24T11:03:22.140Z,16.50
2017-11-24T11:05:50.303Z,16.70
2017-11-24T11:08:18.589Z,16.80
2017-11-24T11:10:46.733Z,16.90
2017-11-24T11:13:14.882Z,17.00
2017-11-24T11:15:43.050Z,17.20
2017-11-24T11:18:11.942Z,17.40
2017-11-24T11:20:40.098Z,17.40
2017-11-24T11:23:08.236Z,17.50
2017-11-24T11:25:36.521Z,17.50
2017-11-24T11:28:04.663Z,17.40
2017-11-24T11:30:32.795Z,17.40
2017-11-24T11:33:01.735Z,17.20
2017-11-24T11:35:29.873Z,17.20
2017-11-24T11:37:58.044Z,17.20
2017-11-24T11:40:26.178Z,17.20
2017-11-24T11:42:54.373Z,17.10
2017-11-24T11:45:23.306Z,16.90
2017-11-24T11:47:56.961Z,16.90
2017-11-24T11:50:25.887Z,16.80
2017-11-24T11:52:54.030Z,16.80
2017-11-24T11:55:22.946Z,16.80
2017-11-24T11:57:51.103Z,16.80
2017-11-24T12:00:20.009Z,16.90
2017-11-24T12:02:48.283Z,16.90
2017-11-24T12:05:16.406Z,16.90
2017-11-24T12:07:44.593Z,16.90
2017-11-24T12:10:12.732Z,16.80
2017-11-24T12:12:40.885Z,16.80
2017-11-24T12:15:09.068Z,16.80
2017-11-24T12:17:37.333Z,16.70
2017-11-24T12:20:05.468Z,16.70
2017-11-24T12:22:34.410Z,16.50
2017-11-24T12:25:02.550Z,16.50
2017-11-24T12:27:31.455Z,16.40
2017-11-24T12:29:59.620Z,16.40
2017-11-24T12:32:27.905Z,16.30
2017-11-24T12:34:56.034Z,16.20
2017-11-24T12:37:24.204Z,16.10
2017-11-24T12:39:52.331Z,16.10
2017-11-24T12:42:20.516Z,16.00
2017-11-24T12:44:48.650Z,15.80
2017-11-24T12:47:17.549Z,15.60
2017-11-24T12:49:45.750Z,15.50
2017-11-24T12:52:13.894Z,15.50
2017-11-24T12:54:42.845Z,15.20
2017-11-24T12:57:10.974Z,15.20
2017-11-24T12:59:39.119Z,15.10
2017-11-24T13:02:08.053Z,15.10
2017-11-24T13:04:36.345Z,15.10
2017-11-24T13:07:04.480Z,15.10
2017-11-24T13:09:32.622Z,15.00
2017-11-24T13:12:08.625Z,14.90
2017-11-24T13:14:36.793Z,14.90
2017-11-24T13:17:04.966Z,14.90
2017-11-24T13:19:33.097Z,14.80
2017-11-24T13:22:01.406Z,14.80
2017-11-24T13:24:29.563Z,14.70
2017-11-24T13:26:57.708Z,14.60
2017-11-24T13:29:25.878Z,14.50
2017-11-24T13:31:54.014Z,14.50
2017-11-24T13:34:22.176Z,14.40
2017-11-24T13:36:50.315Z,14.30
2017-11-24T13:39:18.462Z,14.30
2017-11-24T13:41:46.634Z,14.10
2017-11-24T13:44:14.768Z,14.00
2017-11-24T13:46:42.934Z,13.80
2017-11-24T13:49:11.109Z,13.70
2017-11-24T13:51:40.003Z,13.60
2017-11-24T13:54:08.161Z,13.60
2017-11-24T13:56:37.059Z,13.50
2017-11-24T13:59:06.110Z,13.50
2017-11-24T14:01:34.260Z,13.50
2017-11-24T14:04:02.374Z,13.50
2017-11-24T14:06:30.537Z,13.50
2017-11-24T14:08:58.690Z,13.40
2017-11-24T14:11:26.845Z,13.40
2017-11-24T14:13:55.018Z,13.30
2017-11-24T14:16:23.286Z,13.30
2017-11-24T14:18:51.415Z,13.30
2017-11-24T14:21:19.591Z,13.30
2017-11-24T14:23:47.736Z,13.30
2017-11-24T14:26:16.618Z,13.40
2017-11-24T14:28:44.810Z,13.40
2017-11-24T14:31:12.960Z,13.50
2017-11-24T14:33:41.225Z,13.50
2017-11-24T14:36:09.399Z,13.50
2017-11-24T14:38:37.590Z,13.50
2017-11-24T14:41:05.725Z,13.50
2017-11-24T14:43:33.899Z,13.40
2017-11-24T14:46:02.830Z,13.30
2017-11-24T14:48:30.965Z,13.30
2017-11-24T14:50:59.885Z,13.20
2017-11-24T14:53:28.772Z,13.30
2017-11-24T14:55:57.066Z,13.30
2017-11-24T14:58:25.221Z,13.20
2017-11-24T15:00:53.361Z,13.20
2017-11-24T15:03:22.319Z,13.30
2017-11-24T15:05:50.457Z,13.30
2017-11-24T15:08:18.589Z,13.30
2017-11-24T15:10:47.522Z,13.40
2017-11-24T15:13:15.686Z,13.30
2017-11-24T15:15:43.981Z,13.30
2017-11-24T15:18:12.097Z,13.30
2017-11-24T15:20:40.272Z,13.40
2017-11-24T15:23:08.431Z,13.40
2017-11-24T15:25:36.562Z,13.40
2017-11-24T15:28:04.729Z,13.40
2017-11-24T15:30:32.874Z,13.40
2017-11-24T15:33:01.175Z,13.40
2017-11-24T15:35:29.299Z,13.30
2017-11-24T15:37:57.471Z,13.30
2017-11-24T15:40:25.620Z,13.40
2017-11-24T15:42:53.770Z,13.30
2017-11-24T15:45:21.942Z,13.40
2017-11-24T15:47:50.081Z,13.40
2017-11-24T15:50:18.375Z,13.40
2017-11-24T15:52:47.370Z,13.40
2017-11-24T15:55:15.486Z,13.40
2017-11-24T15:57:43.639Z,13.40
2017-11-24T16:00:11.779Z,13.40
2017-11-24T16:02:39.942Z,13.40
2017-11-24T16:05:08.078Z,13.50
2017-11-24T16:07:36.361Z,13.40
2017-11-24T16:10:04.521Z,13.50
2017-11-24T16:12:32.668Z,13.40
2017-11-24T16:15:01.646Z,13.40
2017-11-24T16:17:29.777Z,13.40
2017-11-24T16:19:58.102Z,13.50
2017-11-24T16:22:26.250Z,13.50
2017-11-24T16:24:54.398Z,13.50
2017-11-24T16:27:22.602Z,13.50
2017-11-24T16:29:50.757Z,13.50
2017-11-24T16:32:18.957Z,13.50
2017-11-24T16:34:47.098Z,13.50
2017-11-24T16:37:15.267Z,13.40
2017-11-24T16:39:43.411Z,13.40
2017-11-24T16:42:11.726Z,13.40
2017-11-24T16:44:39.877Z,13.30
2017-11-24T16:47:08.022Z,13.30
2017-11-24T16:49:36.199Z,13.30
2017-11-24T16:52:04.367Z,13.30
2017-11-24T16:54:33.294Z,13.40
2017-11-24T16:57:01.447Z,13.40
2017-11-24T16:59:29.580Z,13.40
2017-11-24T17:01:57.883Z,13.40
2017-11-24T17:04:26.786Z,13.20
2017-11-24T17:06:54.959Z,13.20
2017-11-24T17:09:23.079Z,13.20
2017-11-24T17:11:51.261Z,13.10
2017-11-24T17:14:19.441Z,13.10
2017-11-24T17:16:47.578Z,13.10
2017-11-24T17:19:15.853Z,13.10
2017-11-24T17:21:44.008Z,13.20
2017-11-24T17:24:12.177Z,13.20
2017-11-24T17:26:41.082Z,13.30
2017-11-24T17:29:09.309Z,13.30
2017-11-24T17:31:37.448Z,13.20
2017-11-24T17:34:05.628Z,13.30
2017-11-24T17:36:33.793Z,13.30
2017-11-24T17:39:01.968Z,13.30
2017-11-24T17:41:30.129Z,13.30
2017-11-24T17:43:58.286Z,13.20
2017-11-24T17:46:26.567Z,13.10
2017-11-24T17:48:54.739Z,13.10
2017-11-24T17:51:22.889Z,13.00
2017-11-24T17:53:51.946Z,12.90
2017-11-24T17:56:20.106Z,12.90
2017-11-24T17:58:48.294Z,12.90
2017-11-24T18:01:16.443Z,12.90
2017-11-24T18:03:44.605Z,12.80
2017-11-24T18:06:12.885Z,12.90
2017-11-24T18:08:41.040Z,12.90
2017-11-24T18:11:09.239Z,12.90
2017-11-24T18:13:37.406Z,12.90
2017-11-24T18:16:05.562Z,12.90
2017-11-24T18:18:34.474Z,12.90
2017-11-24T18:21:02.610Z,12.90
2017-11-24T18:23:31.553Z,12.90
2017-11-24T18:25:59.694Z,12.90
2017-11-24T18:28:28.009Z,12.80
2017-11-24T18:30:56.176Z,12.90
2017-11-24T18:33:24.333Z,12.70
2017-11-24T18:35:52.502Z,12.70
2017-11-24T18:38:21.406Z,12.60
2017-11-24T18:40:49.687Z,12.60
2017-11-24T18:43:17.822Z,12.60
2017-11-24T18:45:46.026Z,12.60
2017-11-24T18:48:14.195Z,12.60
2017-11-24T18:50:42.379Z,12.50
2017-11-24T18:53:10.553Z,12.50
2017-11-24T18:55:38.707Z,12.50
2017-11-24T18:58:06.879Z,12.60
2017-11-24T19:00:35.012Z,12.60
2017-11-24T19:03:03.316Z,12.70
2017-11-24T19:05:31.438Z,12.70
2017-11-24T19:07:59.581Z,12.70
2017-11-24T19:10:27.753Z,12.70
2017-11-24T19:12:55.901Z,12.70
2017-11-24T19:15:24.901Z,12.60
2017-11-24T19:17:53.018Z,12.60
2017-11-24T19:20:21.177Z,12.60
2017-11-24T19:22:49.462Z,12.70
2017-11-24T19:25:17.608Z,12.80
2017-11-24T19:27:45.771Z,12.70
2017-11-24T19:30:13.923Z,12.70
2017-11-24T19:32:42.992Z,12.90
2017-11-24T19:35:11.183Z,12.80
2017-11-24T19:37:39.320Z,12.80
2017-11-24T19:40:07.527Z,12.80
2017-11-24T19:42:35.684Z,12.90
2017-11-24T19:45:03.843Z,12.90
2017-11-24T19:47:32.001Z,12.90
2017-11-24T19:50:00.314Z,12.80
2017-11-24T19:52:28.545Z,12.80
2017-11-24T19:54:56.838Z,12.80
2017-11-24T19:57:33.259Z,12.80
2017-11-24T20:00:02.351Z,12.80
2017-11-24T20:02:30.608Z,12.80
2017-11-24T20:04:58.943Z,12.80
2017-11-24T20:07:27.463Z,12.90
2017-11-24T20:09:56.723Z,12.80
2017-11-24T20:12:25.237Z,12.80
2017-11-24T20:14:54.424Z,12.70
2017-11-24T20:17:22.836Z,12.70
2017-11-24T20:19:51.336Z,12.70
2017-11-24T20:22:19.794Z,12.60
2017-11-24T20:24:48.406Z,12.60
2017-11-24T20:27:16.905Z,12.50
2017-11-24T20:29:45.406Z,12.50
2017-11-24T20:32:13.835Z,12.50
2017-11-24T20:34:42.311Z,12.50
2017-11-24T20:37:10.807Z,12.40
2017-11-24T20:39:39.259Z,12.40
2017-11-24T20:42:08.613Z,12.30
2017-11-24T20:44:37.057Z,12.30
2017-11-24T20:47:05.551Z,12.20
2017-11-24T20:49:34.021Z,12.20
2017-11-24T20:52:02.504Z,12.20
2017-11-24T20:54:30.992Z,12.10
2017-11-24T20:56:59.589Z,12.20
2017-11-24T20:59:28.056Z,12.10
2017-11-24T21:01:56.487Z,12.10
2017-11-24T21:04:24.923Z,12.10
2017-11-24T21:06:53.328Z,12.10
2017-11-24T21:09:21.675Z,12.10
2017-11-24T21:11:50.055Z,12.00
2017-11-24T21:14:18.362Z,12.00
2017-11-24T21:16:46.615Z,12.00
2017-11-24T21:19:14.800Z,12.00
2017-11-24T21:21:43.132Z,11.90
2017-11-24T21:24:11.266Z,12.00
2017-11-24T21:26:39.474Z,11.90
2017-11-24T21:29:07.615Z,11.90
2017-11-24T21:31:35.755Z,11.90
2017-11-24T21:34:04.044Z,11.90
2017-11-24T21:36:32.222Z,11.90
2017-11-24T21:39:00.454Z,11.90
2017-11-24T21:41:28.602Z,11.90
2017-11-24T21:43:56.818Z,12.00
2017-11-24T21:46:24.979Z,12.10
2017-11-24T21:48:53.900Z,12.00
2017-11-24T21:51:22.076Z,12.00
2017-11-24T21:53:50.237Z,11.90
2017-11-24T21:56:18.426Z,12.00
2017-11-24T21:58:46.573Z,11.90
2017-11-24T22:01:15.514Z,11.80
2017-11-24T22:03:43.669Z,11.80
2017-11-24T22:06:11.981Z,11.90
2017-11-24T22:08:40.145Z,11.80
2017-11-24T22:11:08.290Z,11.80
2017-11-24T22:13:36.502Z,11.80
2017-11-24T22:16:04.655Z,11.80
2017-11-24T22:18:32.843Z,11.80
2017-11-24T22:21:01.002Z,11.70
2017-11-24T22:23:29.331Z,11.60
2017-11-24T22:25:58.240Z,11.60
2017-11-24T22:28:26.400Z,11.60
2017-11-24T22:30:55.329Z,11.60
2017-11-24T22:33:23.467Z,11.60
2017-11-24T22:35:52.393Z,11.60
2017-11-24T22:38:20.568Z,11.60
2017-11-24T22:40:48.728Z,11.60
2017-11-24T22:43:16.879Z,11.50
2017-11-24T22:45:45.775Z,11.60
2017-11-24T22:48:13.944Z,11.60
2017-11-24T22:50:42.851Z,11.60
2017-11-24T22:53:11.154Z,11.60
2017-11-24T22:55:39.294Z,11.50
2017-11-24T22:58:07.468Z,11.60
2017-11-24T23:00:35.610Z,11.60
2017-11-24T23:03:03.762Z,11.60
2017-11-24T23:05:31.906Z,11.60
2017-11-24T23:08:00.051Z,11.60
2017-11-24T23:10:28.313Z,11.50
2017-11-24T23:12:56.481Z,11.60
2017-11-24T23:15:25.401Z,11.60
2017-11-24T23:17:53.548Z,11.60
2017-11-24T23:20:21.818Z,11.60
2017-11-24T23:22:49.958Z,11.60
2017-11-24T23:25:18.146Z,11.50
2017-11-24T23:27:46.279Z,11.50
2017-11-24T23:30:14.416Z,11.50
2017-11-24T23:32:43.364Z,11.40
2017-11-24T23:35:11.516Z,11.40
2017-11-24T23:37:39.777Z,11.40
2017-11-24T23:40:08.705Z,11.40
2017-11-24T23:42:36.846Z,11.40
2017-11-24T23:45:04.982Z,11.40
2017-11-24T23:47:33.158Z,11.40
2017-11-24T23:50:01.294Z,11.40
2017-11-24T23:52:29.601Z,11.40
2017-11-24T23:54:57.728Z,11.40
2017-11-24T23:57:25.912Z,11.40
2017-11-24T23:59:54.052Z,11.30
